createdAt,value
2018-12-31T00:00:49.785Z,0.6
2018-12-31T00:01:39.572Z,0.6
2018-12-31T00:02:29.890Z,0.6
2018-12-31T00:03:19.947Z,0.6
2018-12-31T00:04:09.751Z,0.6
2018-12-31T00:04:59.792Z,0.6
2018-12-31T00:05:50.124Z,0.6
2018-12-31T00:06:39.907Z,0.6
2018-12-31T00:07:30.218Z,0.6
2018-12-31T00:08:20.309Z,0.7
2018-12-31T00:09:10.092Z,0.7
2018-12-31T00:10:00.414Z,0.7
2018-12-31T00:10:50.189Z,0.7
2018-12-31T00:11:40.534Z,0.7
2018-12-31T00:12:30.314Z,0.7
2018-12-31T00:13:20.657Z,0.8
2018-12-31T00:14:10.149Z,0.8
2018-12-31T00:15:00.478Z,0.8
2018-12-31T00:33:11.445Z,0.9
2018-12-31T00:34:01.766Z,0.9
2018-12-31T00:34:51.573Z,0.9
2018-12-31T00:35:41.630Z,0.9
2018-12-31T00:36:31.665Z,0.9
2018-12-31T00:37:21.734Z,0.9
2018-12-31T00:38:11.552Z,0.9
2018-12-31T00:39:01.812Z,0.9
2018-12-31T00:39:51.350Z,0.9
2018-12-31T00:40:41.963Z,0.9
2018-12-31T00:41:31.740Z,0.9
2018-12-31T00:42:22.075Z,0.9
2018-12-31T00:43:11.847Z,0.9
2018-12-31T00:44:02.185Z,0.9
2018-12-31T00:44:51.930Z,0.9
2018-12-31T00:45:41.742Z,0.9
2018-12-31T00:46:32.444Z,0.9
2018-12-31T00:47:22.417Z,0.9
2018-12-31T00:48:12.477Z,0.9
2018-12-31T00:49:01.969Z,0.9
2018-12-31T00:49:52.608Z,0.9
2018-12-31T00:50:42.382Z,0.9
2018-12-31T00:51:32.707Z,0.9
2018-12-31T00:52:22.484Z,0.9
2018-12-31T00:53:12.542Z,0.9
2018-12-31T00:54:02.331Z,0.9
2018-12-31T00:54:52.899Z,0.9
2018-12-31T00:55:42.714Z,0.9
2018-12-31T00:56:33.043Z,0.9
2018-12-31T00:57:22.834Z,1
2018-12-31T00:58:12.883Z,1
2018-12-31T00:59:03.091Z,0.9
2018-12-31T00:59:53.013Z,1
2018-12-31T01:00:43.331Z,0.9
2018-12-31T01:01:33.123Z,0.9
2018-12-31T01:02:23.536Z,0.9
2018-12-31T01:03:13.231Z,0.9
2018-12-31T01:04:04.140Z,0.9
2018-12-31T01:04:53.338Z,1
2018-12-31T01:05:43.661Z,1
2018-12-31T01:06:33.465Z,1
2018-12-31T01:07:23.522Z,1
2018-12-31T01:08:13.855Z,1
2018-12-31T01:09:04.173Z,0.9
2018-12-31T01:09:54.520Z,1
2018-12-31T01:10:44.062Z,1
2018-12-31T01:11:34.070Z,1
2018-12-31T01:12:23.652Z,1
2018-12-31T01:13:13.927Z,1
2018-12-31T01:14:04.242Z,1
2018-12-31T01:14:54.307Z,1
2018-12-31T01:15:44.105Z,1
2018-12-31T01:16:34.417Z,1
2018-12-31T01:17:23.950Z,1
2018-12-31T01:18:14.277Z,1
2018-12-31T01:19:04.315Z,1
2018-12-31T01:19:54.374Z,1
2018-12-31T01:20:45.014Z,1
2018-12-31T01:21:34.217Z,1
2018-12-31T01:22:25.017Z,1
2018-12-31T01:23:14.890Z,1
2018-12-31T01:24:04.676Z,1
2018-12-31T01:24:54.451Z,1
2018-12-31T01:25:45.074Z,1
2018-12-31T01:26:34.865Z,1
2018-12-31T01:27:25.182Z,1
2018-12-31T01:28:15.024Z,1
2018-12-31T01:29:05.019Z,1
2018-12-31T01:29:55.889Z,1
2018-12-31T01:30:45.406Z,1
2018-12-31T01:31:34.696Z,1
2018-12-31T01:32:25.239Z,1.1
2018-12-31T01:33:15.573Z,1
2018-12-31T01:34:05.357Z,1
2018-12-31T01:34:55.404Z,1
2018-12-31T01:35:45.753Z,1
2018-12-31T01:36:35.796Z,1
2018-12-31T01:37:25.940Z,1
2018-12-31T01:38:15.930Z,1
2018-12-31T01:39:05.973Z,1
2018-12-31T01:39:56.285Z,1
2018-12-31T01:40:46.148Z,1
2018-12-31T01:41:35.618Z,1
2018-12-31T01:42:25.928Z,1
2018-12-31T01:43:16.257Z,1.1
2018-12-31T01:44:06.051Z,1
2018-12-31T01:44:55.283Z,1
2018-12-31T01:45:46.772Z,1.1
2018-12-31T01:46:36.210Z,1
2018-12-31T01:47:26.273Z,1
2018-12-31T01:48:16.340Z,1
2018-12-31T01:49:06.463Z,1
2018-12-31T01:49:56.717Z,1
2018-12-31T01:50:46.517Z,1
2018-12-31T01:51:36.834Z,1
2018-12-31T01:52:27.000Z,1
2018-12-31T01:53:16.974Z,1
2018-12-31T01:54:07.002Z,1.1
2018-12-31T01:54:57.062Z,1
2018-12-31T01:55:46.574Z,1
2018-12-31T01:56:36.922Z,1
2018-12-31T01:57:27.246Z,1.1
2018-12-31T01:58:17.322Z,1
2018-12-31T01:59:07.359Z,1
2018-12-31T01:59:57.206Z,1
2018-12-31T02:00:46.917Z,1
2018-12-31T02:01:36.986Z,1
2018-12-31T02:02:27.376Z,1
2018-12-31T02:03:17.099Z,1
2018-12-31T02:04:07.696Z,1
2018-12-31T02:04:57.761Z,1
2018-12-31T02:05:47.554Z,1
2018-12-31T02:06:37.606Z,1
2018-12-31T02:07:27.933Z,1
2018-12-31T02:08:17.718Z,1
2018-12-31T02:09:07.551Z,1
2018-12-31T02:09:57.852Z,1.1
2018-12-31T02:10:48.464Z,1.1
2018-12-31T02:11:37.941Z,1
2018-12-31T02:12:28.269Z,1
2018-12-31T02:13:18.150Z,1.1
2018-12-31T02:14:08.385Z,1.1
2018-12-31T02:14:58.450Z,1.1
2018-12-31T02:15:48.758Z,1.1
2018-12-31T02:16:38.005Z,1
2018-12-31T02:17:28.632Z,1.1
2018-12-31T02:18:18.132Z,1
2018-12-31T02:19:08.182Z,1.1
2018-12-31T02:19:58.335Z,1.1
2018-12-31T02:20:48.587Z,1
2018-12-31T02:21:39.165Z,1
2018-12-31T02:22:29.078Z,1
2018-12-31T02:23:19.030Z,1
2018-12-31T02:24:08.526Z,1.1
2018-12-31T02:24:59.138Z,1.1
2018-12-31T02:25:48.939Z,1.1
2018-12-31T02:26:39.340Z,1
2018-12-31T02:27:29.035Z,1.1
2018-12-31T02:28:19.449Z,1.1
2018-12-31T02:29:09.429Z,1.1
2018-12-31T02:29:59.494Z,1
2018-12-31T02:30:49.267Z,1.1
2018-12-31T02:31:39.599Z,1.1
2018-12-31T02:32:29.385Z,1.1
2018-12-31T02:33:19.707Z,1.1
2018-12-31T02:34:09.761Z,1.1
2018-12-31T02:34:59.586Z,1.1
2018-12-31T02:35:49.344Z,1
2018-12-31T02:36:39.944Z,1.1
2018-12-31T02:37:29.437Z,1.1
2018-12-31T02:38:20.116Z,1.1
2018-12-31T02:39:10.120Z,1.1
2018-12-31T02:40:01.699Z,1.1
2018-12-31T02:40:49.979Z,1.1
2018-12-31T02:41:40.023Z,1
2018-12-31T02:42:31.853Z,1.1
2018-12-31T02:43:20.417Z,1
2018-12-31T02:44:10.483Z,1
2018-12-31T02:44:59.981Z,1
2018-12-31T02:45:50.316Z,1
2018-12-31T02:46:40.367Z,1.1
2018-12-31T02:47:30.438Z,1.1
2018-12-31T02:48:20.741Z,1
2018-12-31T02:49:10.805Z,1.1
2018-12-31T02:50:00.643Z,1
2018-12-31T02:50:50.665Z,1
2018-12-31T02:51:41.054Z,1
2018-12-31T02:52:31.279Z,1.1
2018-12-31T02:53:20.827Z,1.1
2018-12-31T02:54:11.140Z,1
2018-12-31T02:55:01.215Z,1
2018-12-31T02:55:51.005Z,1
2018-12-31T02:56:41.050Z,1
2018-12-31T02:57:31.103Z,1.1
2018-12-31T02:58:21.208Z,1.1
2018-12-31T02:59:11.503Z,1
2018-12-31T03:00:01.637Z,1
2018-12-31T03:00:51.617Z,1
2018-12-31T03:01:41.673Z,1
2018-12-31T03:02:31.477Z,1
2018-12-31T03:03:22.294Z,1
2018-12-31T03:04:11.578Z,1
2018-12-31T03:05:01.705Z,1
2018-12-31T03:05:52.227Z,1
2018-12-31T03:06:41.465Z,1
2018-12-31T03:07:31.645Z,1.1
2018-12-31T03:08:21.899Z,1
2018-12-31T03:09:11.970Z,1
2018-12-31T03:10:01.980Z,1
2018-12-31T03:10:52.308Z,1
2018-12-31T03:11:42.357Z,1.1
2018-12-31T03:12:32.442Z,1
2018-12-31T03:13:21.917Z,1.1
2018-12-31T03:14:12.263Z,1.1
2018-12-31T03:15:02.587Z,1
2018-12-31T03:15:52.359Z,1.1
2018-12-31T03:16:42.159Z,1.1
2018-12-31T03:17:32.770Z,1
2018-12-31T03:18:23.077Z,1
2018-12-31T03:19:12.590Z,1
2018-12-31T03:20:02.692Z,1.1
2018-12-31T03:20:53.021Z,1.1
2018-12-31T03:21:42.764Z,1.1
2018-12-31T03:22:32.834Z,1.1
2018-12-31T03:23:22.935Z,1
2018-12-31T03:24:12.674Z,1.1
2018-12-31T03:25:02.721Z,1.1
2018-12-31T03:25:53.339Z,1.1
2018-12-31T03:26:43.494Z,1.1
2018-12-31T03:27:32.910Z,1.1
2018-12-31T03:28:23.533Z,1.1
2018-12-31T03:29:13.277Z,1.1
2018-12-31T03:30:03.202Z,1.1
2018-12-31T03:30:53.240Z,1.1
2018-12-31T03:31:43.209Z,1.1
2018-12-31T03:32:33.612Z,1.1
2018-12-31T03:33:24.096Z,1.1
2018-12-31T03:34:13.675Z,1.1
2018-12-31T03:35:04.057Z,1.1
2018-12-31T03:35:54.019Z,1.1
2018-12-31T03:36:44.076Z,1.1
2018-12-31T03:37:33.583Z,1.1
2018-12-31T03:38:23.933Z,1.1
2018-12-31T03:39:14.474Z,1.1
2018-12-31T03:40:04.308Z,1.1
2018-12-31T03:40:54.366Z,1.1
2018-12-31T03:41:44.550Z,1.1
2018-12-31T03:42:34.198Z,1.1
2018-12-31T03:43:24.286Z,1.1
2018-12-31T03:44:14.323Z,1.1
2018-12-31T03:45:04.676Z,1.1
2018-12-31T03:45:54.435Z,1.1
2018-12-31T03:46:44.281Z,1.1
2018-12-31T03:47:34.836Z,1.1
2018-12-31T03:48:24.849Z,1.1
2018-12-31T03:49:14.680Z,1.1
2018-12-31T03:50:04.989Z,1.1
2018-12-31T03:50:55.046Z,1.1
2018-12-31T03:51:44.549Z,1.1
2018-12-31T03:52:34.886Z,1.1
2018-12-31T03:53:25.233Z,1.1
2018-12-31T03:54:15.286Z,1.1
2018-12-31T03:55:05.345Z,1.1
2018-12-31T03:55:55.386Z,1.1
2018-12-31T03:56:45.478Z,1.1
2018-12-31T03:57:35.227Z,1.1
2018-12-31T03:58:25.581Z,1.1
2018-12-31T03:59:15.622Z,1.1
2018-12-31T04:00:05.405Z,1.1
2018-12-31T04:00:55.450Z,1.1
2018-12-31T04:01:45.528Z,1.1
2018-12-31T04:02:35.852Z,1.1
2018-12-31T04:03:25.638Z,1.1
2018-12-31T04:04:15.498Z,1.1
2018-12-31T04:05:05.774Z,1.1
2018-12-31T04:05:55.535Z,1.1
2018-12-31T04:06:46.145Z,1.1
2018-12-31T04:07:36.212Z,1.1
2018-12-31T04:08:25.981Z,1.1
2018-12-31T04:09:16.322Z,1.1
2018-12-31T04:10:06.377Z,1.1
2018-12-31T04:10:55.871Z,1.1
2018-12-31T04:11:46.227Z,1.1
2018-12-31T04:12:36.539Z,1.1
2018-12-31T04:13:26.590Z,1.1
2018-12-31T04:14:16.382Z,1.1
2018-12-31T04:15:06.430Z,1.1
2018-12-31T04:15:56.509Z,1.1
2018-12-31T04:16:46.572Z,1.1
2018-12-31T04:17:36.881Z,1.1
2018-12-31T04:18:26.656Z,1.1
2018-12-31T04:19:17.015Z,1.1
2018-12-31T04:20:07.071Z,1.1
2018-12-31T04:20:57.111Z,1.1
2018-12-31T04:21:47.420Z,1.1
2018-12-31T04:22:36.669Z,1.1
2018-12-31T04:23:28.933Z,1
2018-12-31T04:24:17.104Z,1
2018-12-31T04:25:07.254Z,1.1
2018-12-31T04:25:57.464Z,1
2018-12-31T04:26:47.257Z,1
2018-12-31T04:27:37.582Z,1
2018-12-31T04:28:27.378Z,1
2018-12-31T04:29:17.143Z,1
2018-12-31T04:30:07.803Z,1
2018-12-31T04:30:57.540Z,1
2018-12-31T04:31:47.580Z,1
2018-12-31T04:32:37.370Z,1
2018-12-31T04:33:27.966Z,1
2018-12-31T04:34:18.028Z,1
2018-12-31T04:35:08.130Z,0.9
2018-12-31T04:35:57.893Z,1
2018-12-31T04:36:47.933Z,0.9
2018-12-31T04:37:37.978Z,0.9
2018-12-31T04:38:28.325Z,0.9
2018-12-31T04:39:18.368Z,0.9
2018-12-31T04:40:08.150Z,0.9
2018-12-31T04:40:58.747Z,0.9
2018-12-31T04:41:48.555Z,0.9
2018-12-31T04:42:38.608Z,0.9
2018-12-31T04:43:28.644Z,0.9
2018-12-31T04:44:18.429Z,0.9
2018-12-31T04:45:08.499Z,0.9
2018-12-31T05:02:30.387Z,0.8
2018-12-31T05:03:19.327Z,0.8
2018-12-31T05:04:09.340Z,0.8
2018-12-31T05:04:59.140Z,0.8
2018-12-31T05:05:49.466Z,0.8
2018-12-31T05:06:39.518Z,0.8
2018-12-31T05:07:29.365Z,0.8
2018-12-31T05:08:19.615Z,0.8
2018-12-31T05:09:09.465Z,0.8
2018-12-31T05:09:59.196Z,0.8
2018-12-31T05:10:49.824Z,0.7
2018-12-31T05:11:39.313Z,0.7
2018-12-31T05:12:30.153Z,0.7
2018-12-31T05:13:19.993Z,0.7
2018-12-31T05:14:10.083Z,0.7
2018-12-31T05:14:59.798Z,0.7
2018-12-31T05:15:49.849Z,0.7
2018-12-31T05:16:39.913Z,0.7
2018-12-31T05:17:30.265Z,0.7
2018-12-31T05:18:20.320Z,0.7
2018-12-31T05:19:09.816Z,0.6
2018-12-31T05:20:00.416Z,0.7
2018-12-31T05:20:50.467Z,0.7
2018-12-31T05:21:40.533Z,0.7
2018-12-31T05:22:30.579Z,0.7
2018-12-31T05:23:20.185Z,0.7
2018-12-31T05:24:10.710Z,0.6
2018-12-31T05:25:00.760Z,0.6
2018-12-31T05:25:50.258Z,0.6
2018-12-31T05:26:40.867Z,0.6
2018-12-31T05:27:30.920Z,0.6
2018-12-31T05:28:20.732Z,0.6
2018-12-31T05:29:10.490Z,0.6
2018-12-31T05:30:00.846Z,0.6
2018-12-31T05:30:50.882Z,0.6
2018-12-31T05:31:41.269Z,0.6
2018-12-31T05:32:31.274Z,0.6
2018-12-31T05:33:21.660Z,0.6
2018-12-31T05:34:11.167Z,0.6
2018-12-31T05:35:01.442Z,0.6
2018-12-31T05:35:51.509Z,0.6
2018-12-31T05:36:41.290Z,0.6
2018-12-31T05:37:31.624Z,0.6
2018-12-31T05:38:21.397Z,0.6
2018-12-31T05:39:11.737Z,0.6
2018-12-31T05:40:01.698Z,0.6
2018-12-31T05:40:51.836Z,0.6
2018-12-31T05:41:41.640Z,0.6
2018-12-31T05:42:31.674Z,0.6
2018-12-31T05:43:22.010Z,0.6
2018-12-31T05:44:11.529Z,0.6
2018-12-31T05:45:02.171Z,0.6
2018-12-31T05:45:52.205Z,0.6
2018-12-31T05:46:41.984Z,0.6
2018-12-31T05:47:32.035Z,0.6
2018-12-31T05:48:22.370Z,0.6
2018-12-31T05:49:12.436Z,0.6
2018-12-31T05:50:02.483Z,0.6
2018-12-31T05:50:52.311Z,0.6
2018-12-31T05:51:42.308Z,0.6
2018-12-31T05:52:32.636Z,0.6
2018-12-31T05:53:22.416Z,0.6
2018-12-31T05:54:12.224Z,0.6
2018-12-31T05:55:02.647Z,0.6
2018-12-31T05:55:52.605Z,0.6
2018-12-31T05:56:42.381Z,0.6
2018-12-31T05:57:32.712Z,0.6
2018-12-31T05:58:23.040Z,0.6
2018-12-31T05:59:12.548Z,0.6
2018-12-31T06:00:03.149Z,0.6
2018-12-31T06:00:53.187Z,0.6
2018-12-31T06:01:42.723Z,0.6
2018-12-31T06:02:33.345Z,0.6
2018-12-31T06:03:23.390Z,0.6
2018-12-31T06:04:13.450Z,0.6
2018-12-31T06:05:03.738Z,0.6
2018-12-31T06:05:53.610Z,0.6
2018-12-31T06:06:43.058Z,0.6
2018-12-31T06:07:33.668Z,0.6
2018-12-31T06:08:23.689Z,0.6
2018-12-31T06:09:13.513Z,0.6
2018-12-31T06:10:03.845Z,0.6
2018-12-31T06:10:53.903Z,0.6
2018-12-31T06:11:43.940Z,0.6
2018-12-31T06:12:33.457Z,0.6
2018-12-31T06:13:24.122Z,0.6
2018-12-31T06:14:13.580Z,0.7
2018-12-31T06:15:04.298Z,0.6
2018-12-31T06:15:54.477Z,0.6
2018-12-31T06:16:44.307Z,0.6
2018-12-31T06:17:34.359Z,0.6
2018-12-31T06:18:24.382Z,0.7
2018-12-31T06:19:14.464Z,0.6
2018-12-31T06:20:03.978Z,0.6
2018-12-31T06:20:54.622Z,0.7
2018-12-31T06:21:44.634Z,0.7
2018-12-31T06:22:34.699Z,0.7
2018-12-31T06:23:24.738Z,0.7
2018-12-31T06:24:14.521Z,0.6
2018-12-31T06:25:04.370Z,0.7
2018-12-31T06:25:54.896Z,0.7
2018-12-31T06:26:45.024Z,0.7
2018-12-31T06:27:35.025Z,0.7
2018-12-31T06:28:25.117Z,0.7
2018-12-31T06:29:15.144Z,0.7
2018-12-31T06:30:04.941Z,0.7
2018-12-31T06:30:55.562Z,0.7
2018-12-31T06:31:45.322Z,0.7
2018-12-31T06:32:35.381Z,0.8
2018-12-31T06:33:25.158Z,0.7
2018-12-31T06:34:15.492Z,0.8
2018-12-31T06:35:05.574Z,0.8
2018-12-31T06:35:55.626Z,0.8
2018-12-31T06:36:45.689Z,0.8
2018-12-31T06:37:35.436Z,0.8
2018-12-31T06:38:25.499Z,0.8
2018-12-31T06:39:15.599Z,0.8
2018-12-31T06:40:05.899Z,0.8
2018-12-31T06:40:55.943Z,0.8
2018-12-31T06:41:45.730Z,0.8
2018-12-31T06:42:35.775Z,0.8
2018-12-31T06:43:25.285Z,0.8
2018-12-31T06:44:15.905Z,0.8
2018-12-31T06:45:06.215Z,0.9
2018-12-31T06:45:56.001Z,0.9
2018-12-31T06:46:46.402Z,0.9
2018-12-31T06:47:36.454Z,0.9
2018-12-31T06:48:26.177Z,0.9
2018-12-31T06:49:16.510Z,0.9
2018-12-31T06:50:06.019Z,0.9
2018-12-31T06:50:56.639Z,1
2018-12-31T06:51:46.687Z,1
2018-12-31T06:52:36.200Z,1
2018-12-31T06:53:26.535Z,1
2018-12-31T06:54:16.864Z,1.1
2018-12-31T06:55:06.421Z,1.1
2018-12-31T06:55:56.967Z,1.1
2018-12-31T06:56:46.747Z,1.1
2018-12-31T06:57:37.084Z,1.1
2018-12-31T06:58:27.502Z,1.1
2018-12-31T06:59:16.912Z,1.1
2018-12-31T07:00:07.549Z,1.1
2018-12-31T07:00:57.024Z,1.2
2018-12-31T07:01:47.083Z,1.2
2018-12-31T07:02:37.422Z,1.3
2018-12-31T07:03:27.204Z,1.3
2018-12-31T07:04:16.989Z,1.3
2018-12-31T07:05:07.865Z,1.3
2018-12-31T07:05:57.658Z,1.3
2018-12-31T07:06:47.166Z,1.4
2018-12-31T07:07:37.512Z,1.4
2018-12-31T07:08:27.545Z,1.4
2018-12-31T07:09:17.608Z,1.4
2018-12-31T07:10:07.666Z,1.5
2018-12-31T07:10:57.168Z,1.5
2018-12-31T07:11:47.768Z,1.6
2018-12-31T07:12:37.828Z,1.6
2018-12-31T07:13:30.027Z,1.6
2018-12-31T07:14:18.203Z,1.6
2018-12-31T07:15:08.273Z,1.7
2018-12-31T07:15:58.190Z,1.7
2018-12-31T07:16:48.123Z,1.8
2018-12-31T07:17:38.448Z,1.8
2018-12-31T07:18:28.538Z,1.8
2018-12-31T07:19:18.563Z,1.9
2018-12-31T07:20:08.315Z,1.9
2018-12-31T07:20:58.390Z,1.9
2018-12-31T07:21:48.451Z,2
2018-12-31T07:22:38.800Z,2.1
2018-12-31T07:23:28.562Z,2.1
2018-12-31T07:24:18.635Z,2.1
2018-12-31T07:25:08.965Z,2.2
2018-12-31T07:25:59.010Z,2.3
2018-12-31T07:26:48.535Z,2.3
2018-12-31T07:27:38.927Z,2.4
2018-12-31T07:28:29.222Z,2.5
2018-12-31T07:29:19.252Z,2.6
2018-12-31T07:30:09.037Z,2.6
2018-12-31T07:30:58.797Z,2.7
2018-12-31T07:31:49.139Z,2.8
2018-12-31T07:32:39.485Z,2.9
2018-12-31T07:33:29.274Z,2.9
2018-12-31T07:34:19.604Z,3.1
2018-12-31T07:35:09.377Z,3.1
2018-12-31T07:35:59.424Z,3.3
2018-12-31T07:36:49.762Z,3.4
2018-12-31T07:37:39.802Z,3.4
2018-12-31T07:38:29.309Z,3.5
2018-12-31T07:39:19.932Z,3.6
2018-12-31T07:40:09.987Z,3.7
2018-12-31T07:41:00.044Z,3.8
2018-12-31T07:41:49.556Z,3.9
2018-12-31T07:42:40.164Z,3.9
2018-12-31T07:43:30.207Z,4.1
2018-12-31T07:44:20.076Z,4.1
2018-12-31T07:45:10.327Z,4.2
2018-12-31T07:46:00.388Z,4.3
2018-12-31T07:46:49.886Z,4.4
2018-12-31T07:47:40.506Z,4.4
2018-12-31T07:48:30.541Z,4.5
2018-12-31T07:49:20.431Z,4.6
2018-12-31T07:50:10.663Z,4.6
2018-12-31T07:51:00.462Z,4.6
2018-12-31T07:51:51.038Z,4.8
2018-12-31T07:52:40.837Z,4.8
2018-12-31T07:53:30.354Z,4.8
2018-12-31T07:54:20.673Z,4.9
2018-12-31T07:55:11.035Z,4.9
2018-12-31T07:56:00.862Z,5
2018-12-31T07:56:51.128Z,5.1
2018-12-31T07:57:42.681Z,5.1
2018-12-31T07:58:30.960Z,5.2
2018-12-31T07:59:21.288Z,5.3
2018-12-31T08:00:10.801Z,5.3
2018-12-31T08:01:01.660Z,5.3
2018-12-31T08:01:51.190Z,5.4
2018-12-31T08:02:41.232Z,5.4
2018-12-31T08:03:31.546Z,5.4
2018-12-31T08:04:21.645Z,5.5
2018-12-31T08:05:11.420Z,5.6
2018-12-31T08:06:01.750Z,5.6
2018-12-31T08:06:51.527Z,5.6
2018-12-31T08:07:41.602Z,5.7
2018-12-31T08:08:31.886Z,5.8
2018-12-31T08:09:21.426Z,5.8
2018-12-31T08:10:11.482Z,5.8
2018-12-31T08:11:02.112Z,5.8
2018-12-31T08:11:52.152Z,5.9
2018-12-31T08:12:41.934Z,5.9
2018-12-31T08:13:31.442Z,5.9
2018-12-31T08:14:22.054Z,6.1
2018-12-31T08:15:11.551Z,6.1
2018-12-31T08:16:02.434Z,6.2
2018-12-31T08:16:52.494Z,6.3
2018-12-31T08:17:42.282Z,6.3
2018-12-31T08:18:32.659Z,6.4
2018-12-31T08:19:22.686Z,6.4
2018-12-31T08:20:12.444Z,6.5
2018-12-31T08:21:02.786Z,6.6
2018-12-31T08:21:52.554Z,6.6
2018-12-31T08:22:42.888Z,6.7
2018-12-31T08:23:32.919Z,6.8
2018-12-31T08:24:22.719Z,6.9
2018-12-31T08:25:13.081Z,6.9
2018-12-31T08:26:03.196Z,7.1
2018-12-31T08:26:52.886Z,7.1
2018-12-31T08:27:43.219Z,7.3
2018-12-31T08:28:32.463Z,7.3
2018-12-31T08:29:23.337Z,7.4
2018-12-31T08:30:13.394Z,7.4
2018-12-31T08:31:03.474Z,7.6
2018-12-31T08:31:53.532Z,7.7
2018-12-31T08:32:43.288Z,7.8
2018-12-31T08:33:33.076Z,7.8
2018-12-31T08:34:23.398Z,7.9
2018-12-31T08:35:13.733Z,8
2018-12-31T08:36:03.801Z,8.1
2018-12-31T08:36:53.856Z,8.1
2018-12-31T08:37:43.643Z,8.3
2018-12-31T08:38:33.688Z,8.3
2018-12-31T08:39:23.462Z,8.3
2018-12-31T08:40:13.793Z,8.4
2018-12-31T08:41:03.888Z,8.4
2018-12-31T08:41:53.645Z,8.5
2018-12-31T08:42:43.970Z,8.6
2018-12-31T08:43:34.302Z,8.6
2018-12-31T08:44:24.353Z,8.6
2018-12-31T08:45:14.440Z,8.7
2018-12-31T08:46:03.942Z,8.7
2018-12-31T08:46:54.258Z,8.7
2018-12-31T08:47:44.600Z,8.8
2018-12-31T08:48:34.352Z,8.8
2018-12-31T08:49:25.005Z,8.8
2018-12-31T08:50:14.498Z,8.8
2018-12-31T08:51:04.300Z,8.8
2018-12-31T08:51:54.929Z,8.8
2018-12-31T08:52:44.647Z,8.9
2018-12-31T08:53:34.714Z,8.9
2018-12-31T08:54:24.769Z,8.9
2018-12-31T08:55:15.084Z,8.9
2018-12-31T08:56:04.871Z,8.9
2018-12-31T08:56:55.217Z,8.9
2018-12-31T08:57:44.475Z,8.9
2018-12-31T08:58:35.039Z,8.9
2018-12-31T08:59:25.098Z,8.9
2018-12-31T09:00:15.434Z,9
2018-12-31T09:01:05.215Z,9
2018-12-31T09:16:53.142Z,9.6
2018-12-31T09:17:43.518Z,9.6
2018-12-31T09:18:33.543Z,9.7
2018-12-31T09:19:23.591Z,9.7
2018-12-31T09:20:13.942Z,9.8
2018-12-31T09:21:03.444Z,9.8
2018-12-31T09:21:54.020Z,9.8
2018-12-31T09:22:43.815Z,9.8
2018-12-31T09:23:34.150Z,9.8
2018-12-31T09:24:23.948Z,9.9
2018-12-31T09:25:14.265Z,9.9
2018-12-31T09:26:04.335Z,9.9
2018-12-31T09:26:53.657Z,10
2018-12-31T09:27:44.156Z,10
2018-12-31T09:28:34.492Z,10.1
2018-12-31T09:29:24.267Z,10.1
2018-12-31T09:30:14.329Z,10.1
2018-12-31T09:31:04.727Z,10.2
2018-12-31T09:31:54.710Z,10.2
2018-12-31T09:32:44.774Z,10.3
2018-12-31T09:33:34.283Z,10.3
2018-12-31T09:34:24.897Z,10.4
2018-12-31T09:35:14.940Z,10.4
2018-12-31T09:36:04.999Z,10.4
2018-12-31T09:36:54.772Z,10.4
2018-12-31T09:37:45.104Z,10.5
2018-12-31T09:38:34.899Z,10.6
2018-12-31T09:39:24.964Z,10.6
2018-12-31T09:40:15.276Z,10.6
2018-12-31T09:41:05.337Z,10.7
2018-12-31T09:41:55.474Z,10.7
2018-12-31T09:42:44.966Z,10.8
2018-12-31T09:43:35.513Z,10.8
2018-12-31T09:44:25.576Z,10.9
2018-12-31T09:45:15.359Z,10.9
2018-12-31T09:46:05.683Z,11
2018-12-31T09:46:55.801Z,11
2018-12-31T09:47:45.236Z,11.1
2018-12-31T09:48:35.856Z,11.1
2018-12-31T09:49:25.356Z,11.1
2018-12-31T09:50:15.686Z,11.2
2018-12-31T09:51:06.023Z,11.2
2018-12-31T09:51:55.800Z,11.3
2018-12-31T09:52:45.976Z,11.3
2018-12-31T09:53:36.186Z,11.3
2018-12-31T09:54:25.996Z,11.4
2018-12-31T09:55:16.018Z,11.4
2018-12-31T09:56:05.813Z,11.4
2018-12-31T09:56:56.419Z,11.5
2018-12-31T09:57:46.485Z,11.6
2018-12-31T09:58:38.626Z,11.6
2018-12-31T09:59:26.031Z,11.7
2018-12-31T10:00:16.096Z,11.7
2018-12-31T10:01:06.455Z,11.8
2018-12-31T10:01:56.768Z,11.8
2018-12-31T10:02:46.554Z,11.8
2018-12-31T10:03:36.383Z,11.8
2018-12-31T10:04:26.432Z,11.9
2018-12-31T10:05:17.000Z,11.9
2018-12-31T10:06:06.763Z,11.9
2018-12-31T10:06:57.115Z,11.9
2018-12-31T10:07:46.875Z,12
2018-12-31T10:08:37.215Z,12.1
2018-12-31T10:09:26.737Z,12.1
2018-12-31T10:10:17.322Z,12.1
2018-12-31T10:11:07.118Z,12.1
2018-12-31T10:11:57.470Z,12.2
2018-12-31T10:12:47.227Z,12.2
2018-12-31T10:13:37.558Z,12.3
2018-12-31T10:14:27.098Z,12.3
2018-12-31T10:15:17.717Z,12.3
2018-12-31T10:16:07.747Z,12.3
2018-12-31T10:16:57.779Z,12.4
2018-12-31T10:17:47.292Z,12.4
2018-12-31T10:18:38.238Z,12.4
2018-12-31T10:19:27.966Z,12.4
2018-12-31T10:20:17.746Z,12.4
2018-12-31T10:21:08.066Z,12.5
2018-12-31T10:21:57.311Z,12.5
2018-12-31T10:22:49.834Z,12.5
2018-12-31T10:23:38.239Z,12.5
2018-12-31T10:24:28.304Z,12.6
2018-12-31T10:25:18.074Z,12.6
2018-12-31T10:26:07.596Z,12.6
2018-12-31T10:26:57.926Z,12.6
2018-12-31T10:27:48.526Z,12.6
2018-12-31T10:28:38.654Z,12.6
2018-12-31T10:29:35.763Z,12.6
2018-12-31T10:30:18.694Z,12.6
2018-12-31T10:31:08.998Z,12.6
2018-12-31T10:31:58.530Z,12.6
2018-12-31T10:32:48.857Z,12.6
2018-12-31T10:33:38.638Z,12.6
2018-12-31T10:34:30.747Z,12.6
2018-12-31T10:35:18.803Z,12.6
2018-12-31T10:36:09.085Z,12.6
2018-12-31T10:36:59.143Z,12.6
2018-12-31T10:37:49.200Z,12.6
2018-12-31T10:38:38.709Z,12.6
2018-12-31T10:39:28.765Z,12.6
2018-12-31T10:40:19.363Z,12.6
2018-12-31T10:41:09.152Z,12.6
2018-12-31T10:41:58.937Z,12.6
2018-12-31T10:42:48.997Z,12.6
2018-12-31T10:43:39.317Z,12.6
2018-12-31T10:44:30.202Z,12.6
2018-12-31T10:45:19.440Z,12.7
2018-12-31T10:46:09.495Z,12.7
2018-12-31T10:46:59.830Z,12.7
2018-12-31T10:47:49.881Z,12.7
2018-12-31T10:48:40.004Z,12.7
2018-12-31T10:49:30.249Z,12.7
2018-12-31T10:50:20.064Z,12.7
2018-12-31T10:51:09.837Z,12.8
2018-12-31T10:51:59.888Z,12.8
2018-12-31T10:52:50.222Z,12.8
2018-12-31T10:53:40.017Z,12.8
2018-12-31T10:54:30.377Z,12.9
2018-12-31T10:55:20.122Z,12.9
2018-12-31T10:56:10.174Z,12.9
2018-12-31T10:57:00.749Z,13
2018-12-31T10:57:50.564Z,13.1
2018-12-31T10:58:40.649Z,13.1
2018-12-31T10:59:30.406Z,13.2
2018-12-31T11:00:20.191Z,13.3
2018-12-31T11:01:10.792Z,13.4
2018-12-31T11:02:00.656Z,13.4
2018-12-31T11:02:50.619Z,13.5
2018-12-31T11:03:43.274Z,13.6
2018-12-31T11:04:31.029Z,13.6
2018-12-31T11:05:21.065Z,13.7
2018-12-31T11:06:11.116Z,13.8
2018-12-31T11:07:01.186Z,13.8
2018-12-31T11:07:50.698Z,13.9
2018-12-31T11:08:41.304Z,13.9
2018-12-31T11:09:31.059Z,13.9
2018-12-31T11:10:21.149Z,14
2018-12-31T11:11:11.206Z,14.1
2018-12-31T11:12:01.246Z,14.1
2018-12-31T11:12:51.298Z,14.2
2018-12-31T11:13:41.359Z,14.2
2018-12-31T11:14:31.746Z,14.3
2018-12-31T11:15:21.753Z,14.4
2018-12-31T11:16:11.334Z,14.4
2018-12-31T11:17:01.878Z,14.5
2018-12-31T11:17:51.630Z,14.6
2018-12-31T11:18:41.688Z,14.6
2018-12-31T11:19:34.014Z,14.6
2018-12-31T11:20:22.200Z,14.7
2018-12-31T11:21:11.871Z,14.7
2018-12-31T11:22:01.985Z,14.7
2018-12-31T11:22:51.990Z,14.8
2018-12-31T11:23:41.760Z,14.8
2018-12-31T11:24:32.107Z,14.8
2018-12-31T11:25:22.428Z,14.8
2018-12-31T11:26:11.652Z,14.9
2018-12-31T11:27:01.995Z,14.9
2018-12-31T11:27:52.569Z,14.9
2018-12-31T11:28:42.368Z,14.9
2018-12-31T11:29:32.709Z,14.9
2018-12-31T11:30:22.229Z,14.9
2018-12-31T11:31:12.815Z,14.9
2018-12-31T11:32:02.610Z,14.9
2018-12-31T11:32:52.674Z,14.8
2018-12-31T11:33:42.989Z,14.8
2018-12-31T11:34:32.782Z,14.8
2018-12-31T11:35:22.824Z,14.8
2018-12-31T11:36:13.159Z,14.7
2018-12-31T11:37:02.944Z,14.6
2018-12-31T11:37:52.739Z,14.6
2018-12-31T11:38:42.789Z,14.5
2018-12-31T11:39:32.856Z,14.4
2018-12-31T11:40:23.176Z,14.4
2018-12-31T11:41:13.756Z,14.3
2018-12-31T11:42:03.295Z,14.3
2018-12-31T11:42:53.606Z,14.2
2018-12-31T11:43:43.406Z,14.1
2018-12-31T11:44:33.446Z,14
2018-12-31T11:45:23.791Z,13.9
2018-12-31T11:46:14.091Z,13.9
2018-12-31T11:47:04.996Z,13.9
2018-12-31T11:47:53.956Z,13.8
2018-12-31T11:48:43.749Z,13.8
2018-12-31T11:49:34.081Z,13.8
2018-12-31T11:50:23.876Z,13.7
2018-12-31T11:51:14.434Z,13.7
2018-12-31T11:52:03.965Z,13.6
2018-12-31T11:52:54.286Z,13.6
2018-12-31T11:53:43.802Z,13.6
2018-12-31T11:54:34.420Z,13.6
2018-12-31T11:55:24.198Z,13.6
2018-12-31T11:56:14.536Z,13.6
2018-12-31T11:57:04.573Z,13.6
2018-12-31T11:57:54.370Z,13.6
2018-12-31T11:58:44.698Z,13.6
2018-12-31T11:59:34.758Z,13.6
2018-12-31T12:00:24.535Z,13.5
2018-12-31T12:01:14.655Z,13.5
2018-12-31T12:02:04.930Z,13.5
2018-12-31T12:02:54.966Z,13.4
2018-12-31T12:03:45.285Z,13.4
2018-12-31T12:04:34.808Z,13.4
2018-12-31T12:05:25.223Z,13.4
2018-12-31T12:06:14.973Z,13.4
2018-12-31T12:07:04.981Z,13.4
2018-12-31T12:07:55.047Z,13.4
2018-12-31T12:08:46.794Z,13.3
2018-12-31T12:09:35.175Z,13.3
2018-12-31T12:10:25.240Z,13.3
2018-12-31T12:11:15.562Z,13.2
2018-12-31T12:12:05.702Z,13.1
2018-12-31T12:12:55.697Z,13.1
2018-12-31T12:13:45.727Z,13.1
2018-12-31T12:14:35.515Z,13
2018-12-31T12:15:25.880Z,13
2018-12-31T12:16:16.164Z,12.9
2018-12-31T12:17:05.690Z,12.9
2018-12-31T12:17:56.045Z,12.9
2018-12-31T12:18:45.789Z,12.8
2018-12-31T12:19:35.847Z,12.8
2018-12-31T12:20:26.190Z,12.8
2018-12-31T12:21:16.240Z,12.7